Time;durP1;ratioP1;P1;durP2;ratioP2;P2;SDS_P1;SDS_P2;PMS_P1;PMS_P2;Temp;Humidity;BMP_temperature;BMP_pressure;BME280_temperature;BME280_humidity;BME280_pressure;Samples;Min_cycle;Max_cycle;Signal;HPM_P1;HPM_P2
2022/05/14 00:00:35;;;;;;;7.20;5.87;;;19.30;70.50;;;19.63;50.99;94886.44;5068126;28;20516;-57
2022/05/14 00:03:02;;;;;;;6.97;5.47;;;19.20;71.00;;;19.60;51.08;94878.00;5065584;28;20443;-56
2022/05/14 00:05:29;;;;;;;6.63;5.27;;;19.20;71.50;;;19.56;51.48;94874.88;5066281;28;20475;-56
2022/05/14 00:07:57;;;;;;;13.30;5.53;;;19.20;71.20;;;19.53;51.57;94875.25;5066766;28;20541;-57
2022/05/14 00:10:28;;;;;;;11.10;5.60;;;19.20;71.60;;;19.49;51.58;94874.84;5066421;28;20475;-58
2022/05/14 00:13:06;;;;;;;6.00;5.40;;;19.10;71.80;;;19.47;51.53;94876.03;5067147;28;20838;-56
2022/05/14 00:15:37;;;;;;;9.00;6.50;;;19.10;72.10;;;19.41;51.17;94868.81;5063684;28;20478;-56
2022/05/14 00:18:05;;;;;;;11.20;5.50;;;19.10;72.40;;;19.39;51.63;94870.88;5067437;28;20454;-55
2022/05/14 00:20:32;;;;;;;6.17;5.57;;;19.00;72.20;;;19.35;51.80;94862.44;5065749;28;20486;-55
2022/05/14 00:23:00;;;;;;;8.87;5.70;;;19.00;72.20;;;19.30;51.73;94859.50;5065508;28;20993;-56
2022/05/14 00:25:27;;;;;;;8.77;5.40;;;18.90;72.80;;;19.27;51.97;94867.91;5067573;28;20486;-58
2022/05/14 00:27:55;;;;;;;6.63;6.03;;;18.90;73.20;;;19.23;52.00;94870.13;5065627;28;20486;-58
2022/05/14 00:30:24;;;;;;;16.43;6.17;;;18.90;73.40;;;19.19;52.39;94862.72;5066371;28;20475;-57
2022/05/14 00:32:53;;;;;;;6.13;5.60;;;18.80;73.70;;;19.13;52.63;94858.97;5066505;28;20470;-58
2022/05/14 00:35:20;;;;;;;7.47;5.27;;;18.80;74.20;;;19.08;52.42;94856.88;5067725;28;20489;-55
2022/05/14 00:37:48;;;;;;;6.20;5.70;;;18.70;74.50;;;19.05;52.25;94856.47;5066364;28;20454;-58
2022/05/14 00:40:18;;;;;;;12.63;5.47;;;18.70;74.70;;;19.01;52.39;94860.50;5065302;28;20494;-58
2022/05/14 00:42:45;;;;;;;10.53;6.40;;;18.70;75.10;;;18.97;53.04;94855.56;5063197;28;20462;-58
2022/05/14 00:45:13;;;;;;;12.20;6.90;;;18.60;75.40;;;18.94;53.04;94853.28;5067548;28;20478;-58
2022/05/14 00:47:42;;;;;;;6.80;5.80;;;18.60;75.90;;;18.90;52.50;94857.38;5064784;28;20459;-59
2022/05/14 00:50:16;;;;;;;12.13;5.60;;;18.50;75.60;;;18.87;53.19;94852.41;5066357;28;21069;-55
2022/05/14 00:52:44;;;;;;;6.83;6.10;;;18.50;76.00;;;18.85;52.89;94859.75;5063591;28;20458;-58
2022/05/14 00:55:12;;;;;;;17.17;6.50;;;18.50;76.50;;;18.82;53.56;94860.13;5065654;28;20508;-55
2022/05/14 00:57:41;;;;;;;8.57;6.57;;;18.50;76.60;;;18.79;53.11;94848.03;5064678;28;20490;-56
2022/05/14 01:00:11;;;;;;;8.20;6.13;;;18.50;76.70;;;18.77;53.18;94854.53;5066854;28;20510;-55
2022/05/14 01:02:39;;;;;;;11.20;6.77;;;18.40;76.90;;;18.76;53.20;94855.53;5066824;28;20840;-54
2022/05/14 01:05:08;;;;;;;6.50;5.90;;;18.40;77.40;;;18.74;53.65;94855.75;5065846;28;20967;-58
2022/05/14 01:07:38;;;;;;;15.87;7.00;;;18.40;77.60;;;18.72;53.88;94849.78;5065133;28;20455;-58
2022/05/14 01:10:07;;;;;;;9.97;5.60;;;18.40;77.70;;;18.70;53.46;94848.31;5064179;28;20470;-59
2022/05/14 01:12:35;;;;;;;8.40;6.23;;;18.30;77.80;;;18.68;53.71;94848.50;5066235;28;20459;-57
2022/05/14 01:15:11;;;;;;;8.67;5.40;;;18.30;78.00;;;18.66;54.31;94852.41;5065434;28;20447;-55
2022/05/14 01:17:38;;;;;;;11.60;6.40;;;18.30;78.00;;;18.64;53.76;94853.41;5064921;28;20484;-58
2022/05/14 01:20:07;;;;;;;7.13;5.67;;;18.30;78.30;;;18.63;53.92;94850.94;5065278;28;20597;-59
2022/05/14 01:22:46;;;;;;;10.10;6.47;;;18.30;78.60;;;18.60;54.75;94854.78;5066067;28;20454;-59
2022/05/14 01:28:07;;;;;;;11.27;7.03;;;18.20;78.50;;;18.52;54.20;94846.94;5062731;28;20459;-58
2022/05/14 01:30:35;;;;;;;8.57;6.83;;;18.20;78.60;;;18.49;54.11;94855.28;5065032;28;20491;-58
2022/05/14 01:33:11;;;;;;;7.07;6.30;;;18.20;78.80;;;18.47;54.60;94846.69;5065990;28;20454;-55
2022/05/14 01:35:40;;;;;;;8.73;6.17;;;18.10;79.40;;;18.44;54.57;94839.88;5062803;28;20490;-58
2022/05/14 01:38:07;;;;;;;13.33;7.27;;;18.10;79.60;;;18.43;54.43;94840.91;5065493;28;20481;-56
2022/05/14 01:40:35;;;;;;;9.53;6.53;;;18.10;80.20;;;18.40;55.00;94835.97;5064425;28;20580;-55
2022/05/14 01:43:03;;;;;;;12.10;6.90;;;18.00;80.10;;;18.38;54.54;94824.66;5064959;28;21002;-57
2022/05/14 01:45:32;;;;;;;10.50;6.77;;;18.00;80.50;;;18.36;54.84;94825.88;5063226;28;20574;-58
2022/05/14 01:47:59;;;;;;;6.83;6.13;;;18.00;80.60;;;18.35;54.64;94837.53;5064736;28;20451;-56
2022/05/14 01:50:27;;;;;;;11.03;7.30;;;18.00;80.90;;;18.31;55.13;94831.78;5065862;28;20482;-58
2022/05/14 01:52:54;;;;;;;8.43;7.13;;;18.00;81.50;;;18.28;55.57;94830.31;5068748;28;20524;-55
2022/05/14 01:55:21;;;;;;;6.63;5.77;;;17.90;81.80;;;18.25;55.59;94833.34;5068961;28;20466;-55
2022/05/14 01:57:49;;;;;;;7.60;6.80;;;17.90;82.00;;;18.23;55.28;94840.69;5066844;28;20996;-58
2022/05/14 02:00:17;;;;;;;12.80;7.10;;;17.90;82.20;;;18.21;55.95;94832.06;5068804;28;20495;-55
2022/05/14 02:02:46;;;;;;;16.50;6.83;;;17.90;82.50;;;18.18;55.59;94834.28;5068810;28;20463;-58
2022/05/14 02:05:13;;;;;;;6.93;6.10;;;17.90;83.00;;;18.16;55.73;94837.13;5069309;28;20506;-59
2022/05/14 02:07:41;;;;;;;11.53;8.73;;;17.80;83.40;;;18.12;55.57;94835.84;5068140;28;20572;-58
2022/05/14 02:10:09;;;;;;;9.90;7.33;;;17.80;82.80;;;18.07;55.72;94830.28;5070049;28;21086;-57
2022/05/14 02:12:37;;;;;;;9.60;7.40;;;17.80;83.40;;;18.03;56.27;94839.63;5067624;28;20915;-58
2022/05/14 02:15:05;;;;;;;8.23;7.30;;;17.70;83.60;;;18.00;55.93;94832.03;5068329;28;20459;-58
2022/05/14 02:17:33;;;;;;;11.27;7.93;;;17.70;83.70;;;17.97;56.65;94824.41;5068259;28;20480;-58
2022/05/14 02:20:02;;;;;;;8.70;7.80;;;17.70;83.90;;;17.94;56.36;94832.75;5068987;28;20490;-58
2022/05/14 02:22:29;;;;;;;12.20;7.00;;;17.60;83.80;;;17.92;56.31;94836.47;5068207;28;20480;-55
2022/05/14 02:24:56;;;;;;;7.13;6.43;;;17.60;84.30;;;17.91;56.79;94828.66;5068053;28;20461;-55
2022/05/14 02:27:23;;;;;;;12.83;6.77;;;17.60;85.10;;;17.88;56.93;94831.66;5068253;28;20901;-58
2022/05/14 02:29:54;;;;;;;9.27;7.67;;;17.60;85.20;;;17.86;56.96;94829.19;5067512;28;20974;-55
2022/05/14 02:32:23;;;;;;;8.57;7.70;;;17.50;85.30;;;17.83;56.80;94832.22;5065705;28;20536;-57
2022/05/14 02:34:51;;;;;;;9.33;8.07;;;17.50;85.00;;;17.80;56.83;94826.41;5067501;28;20566;-55
2022/05/14 02:37:22;;;;;;;11.27;7.27;;;17.50;85.10;;;17.78;56.67;94831.13;5070927;28;21028;-58
2022/05/14 02:39:49;;;;;;;10.50;8.07;;;17.50;85.50;;;17.79;56.92;94844.22;5068088;28;21021;-56
2022/05/14 02:42:17;;;;;;;13.43;7.90;;;17.40;85.90;;;17.77;57.30;94840.94;5064537;28;20459;-55
2022/05/14 02:44:44;;;;;;;11.53;6.77;;;17.40;85.90;;;17.74;57.31;94836.81;5067907;28;20456;-58
2022/05/14 02:47:11;;;;;;;7.83;6.83;;;17.40;85.90;;;17.73;57.38;94839.66;5065886;28;20475;-56
2022/05/14 02:49:39;;;;;;;9.80;7.27;;;17.40;86.10;;;17.72;57.45;94837.97;5069818;28;20786;-59
2022/05/14 02:52:07;;;;;;;9.07;7.00;;;17.40;86.30;;;17.70;57.63;94835.50;5067094;28;20823;-59
2022/05/14 02:54:36;;;;;;;12.60;7.20;;;17.30;86.60;;;17.67;57.29;94838.53;5067671;28;20565;-56
2022/05/14 02:57:05;;;;;;;8.07;7.20;;;17.30;86.50;;;17.67;57.11;94843.03;5068428;28;20559;-56
2022/05/14 02:59:32;;;;;;;12.77;8.43;;;17.40;87.00;;;17.66;57.97;94846.69;5066946;28;20443;-55
2022/05/14 03:01:59;;;;;;;13.07;7.97;;;17.30;86.90;;;17.64;57.78;94846.06;5068674;28;20571;-57
2022/05/14 03:04:28;;;;;;;13.70;9.00;;;17.30;87.00;;;17.62;57.89;94845.44;5068119;28;20458;-59
2022/05/14 03:06:56;;;;;;;23.20;8.77;;;17.30;87.20;;;17.58;57.45;94846.81;5067669;28;20467;-58
2022/05/14 03:09:24;;;;;;;9.60;7.33;;;17.30;87.50;;;17.54;57.67;94846.34;5070045;28;20895;-55
2022/05/14 03:11:53;;;;;;;12.60;8.07;;;17.20;87.40;;;17.51;58.05;94844.88;5067528;28;21029;-55
2022/05/14 03:14:20;;;;;;;9.97;7.93;;;17.20;87.40;;;17.47;57.75;94851.56;5068117;28;20807;-58
2022/05/14 03:16:47;;;;;;;19.57;8.90;;;17.20;87.40;;;17.45;57.77;94847.47;5069972;28;20470;-57
2022/05/14 03:19:15;;;;;;;11.23;7.67;;;17.10;87.80;;;17.42;57.64;94839.84;5068134;28;20463;-55
2022/05/14 03:21:42;;;;;;;8.33;6.67;;;17.10;87.60;;;17.38;57.91;94836.69;5068121;28;20513;-60
2022/05/14 03:24:10;;;;;;;9.60;8.20;;;17.10;87.80;;;17.36;58.08;94844.06;5066285;28;20455;-54
2022/05/14 03:26:38;;;;;;;8.73;7.57;;;17.10;88.10;;;17.34;58.36;94846.06;5066933;28;20478;-55
2022/05/14 03:29:07;;;;;;;9.67;8.70;;;17.00;88.40;;;17.33;58.35;94857.72;5066213;28;20536;-56
2022/05/14 03:31:34;;;;;;;10.90;8.43;;;17.00;88.00;;;17.29;58.03;94853.75;5067234;28;20553;-55
2022/05/14 03:34:03;;;;;;;22.20;9.20;;;16.90;88.20;;;17.27;58.27;94855.78;5067078;28;20462;-55
2022/05/14 03:36:30;;;;;;;11.60;7.83;;;16.90;88.70;;;17.24;58.63;94856.13;5067803;28;20518;-55
2022/05/14 03:38:57;;;;;;;10.47;8.03;;;16.90;88.50;;;17.23;58.37;94849.16;5066382;28;20463;-56
2022/05/14 03:41:24;;;;;;;10.53;7.10;;;16.90;89.00;;;17.24;58.77;94858.78;5065280;28;20498;-55
2022/05/14 03:43:52;;;;;;;10.83;7.90;;;16.90;89.40;;;17.25;58.42;94855.13;5066258;28;20455;-57
2022/05/14 03:46:20;;;;;;;16.00;8.97;;;16.90;89.10;;;17.25;58.58;94855.13;5068640;28;20482;-55
2022/05/14 03:48:48;;;;;;;12.73;9.07;;;16.90;89.10;;;17.25;58.63;94847.16;5064896;28;20689;-58
2022/05/14 03:51:15;;;;;;;16.27;9.97;;;16.90;89.10;;;17.25;58.32;94852.47;5067488;28;20474;-58
2022/05/14 03:53:42;;;;;;;13.67;8.60;;;16.90;89.00;;;17.22;58.63;94852.84;5067326;28;20466;-56
2022/05/14 03:56:09;;;;;;;21.70;9.40;;;16.90;89.10;;;17.20;58.40;94851.19;5067018;28;20546;-58
2022/05/14 03:58:37;;;;;;;17.43;9.17;;;16.90;89.90;;;17.20;58.50;94858.34;5062522;28;20446;-56
2022/05/14 04:01:05;;;;;;;9.53;8.53;;;16.90;89.10;;;17.20;58.62;94861.00;5069758;28;20567;-57
2022/05/14 04:03:34;;;;;;;12.03;9.40;;;16.90;89.90;;;17.22;58.72;94863.47;5065788;28;20963;-55
2022/05/14 04:06:01;;;;;;;18.47;9.97;;;16.90;89.30;;;17.25;58.94;94863.94;5066019;28;20481;-57
2022/05/14 04:08:28;;;;;;;17.87;8.93;;;16.90;89.80;;;17.30;58.83;94884.66;5066816;28;20447;-57
2022/05/14 04:10:56;;;;;;;18.70;9.00;;;16.90;90.10;;;17.33;58.98;94881.63;5066194;28;20479;-57
2022/05/14 04:13:23;;;;;;;25.23;10.03;;;17.00;90.00;;;17.37;58.63;94883.75;5067420;28;20469;-54
2022/05/14 04:15:50;;;;;;;13.30;8.30;;;17.00;89.60;;;17.42;58.37;94874.41;5065732;28;21013;-55
2022/05/14 04:18:24;;;;;;;14.43;8.87;;;17.10;89.40;;;17.46;58.34;94876.53;5066955;28;20450;-55
2022/05/14 04:20:54;;;;;;;10.63;8.37;;;17.10;89.40;;;17.48;58.14;94887.78;5065820;28;20502;-59
2022/05/14 04:23:21;;;;;;;9.50;8.37;;;17.10;89.10;;;17.53;58.18;94890.72;5064263;28;20534;-57
2022/05/14 04:25:50;;;;;;;14.97;9.00;;;17.20;88.60;;;17.55;58.04;94891.38;5066250;28;20518;-59
2022/05/14 04:28:18;;;;;;;19.13;8.73;;;17.20;88.60;;;17.58;57.71;94892.84;5065660;28;20519;-58
2022/05/14 04:30:45;;;;;;;9.80;8.80;;;17.20;88.10;;;17.55;57.60;94902.03;5066100;28;20487;-59
2022/05/14 04:33:13;;;;;;;15.23;8.87;;;17.20;88.10;;;17.52;57.57;94897.06;5064708;28;21017;-62
2022/05/14 04:35:40;;;;;;;11.67;9.03;;;17.20;88.20;;;17.53;57.85;94904.03;5069362;28;20575;-59
2022/05/14 04:38:09;;;;;;;12.10;8.97;;;17.20;88.20;;;17.52;57.58;94907.72;5066089;28;20459;-56
2022/05/14 04:40:37;;;;;;;13.00;10.03;;;17.20;88.20;;;17.52;58.07;94902.38;5064856;28;20968;-55
2022/05/14 04:43:06;;;;;;;13.03;8.97;;;17.20;88.40;;;17.54;57.80;94903.03;5063759;28;20451;-56
2022/05/14 04:45:33;;;;;;;14.30;9.30;;;17.20;88.20;;;17.57;57.52;94907.16;5067247;28;20857;-56
2022/05/14 04:48:01;;;;;;;11.30;7.63;;;17.20;88.10;;;17.56;57.51;94906.31;5064601;28;20963;-57
2022/05/14 04:50:28;;;;;;;14.17;9.63;;;17.20;88.00;;;17.58;57.62;94913.28;5065883;28;20467;-55
2022/05/14 04:52:55;;;;;;;13.83;9.03;;;17.20;87.70;;;17.59;57.57;94917.63;5064894;28;20466;-58
2022/05/14 04:55:24;;;;;;;20.37;8.63;;;17.30;87.70;;;17.62;57.62;94912.75;5062779;28;20571;-60
2022/05/14 04:57:51;;;;;;;12.10;8.83;;;17.30;87.50;;;17.67;57.22;94925.50;5065133;28;20454;-56
2022/05/14 05:00:19;;;;;;;21.67;8.43;;;17.30;87.50;;;17.71;57.26;94916.16;5065103;28;20929;-56
2022/05/14 05:05:34;;;;;;;17.23;8.60;;;17.40;87.40;;;17.82;57.19;94923.69;5071337;28;20466;-59
2022/05/14 05:08:01;;;;;;;15.00;8.00;;;17.50;87.30;;;17.89;56.88;94924.63;5063728;28;20485;-56
2022/05/14 05:10:30;;;;;;;35.10;9.20;;;17.50;87.00;;;17.97;56.54;94920.22;5064050;28;20489;-57
2022/05/14 05:12:57;;;;;;;17.07;8.00;;;17.60;86.70;;;18.05;56.24;94922.78;5066452;28;20455;-59
2022/05/14 05:15:25;;;;;;;15.17;8.90;;;17.70;86.30;;;18.13;56.38;94925.34;5065532;28;20499;-55
2022/05/14 05:17:52;;;;;;;19.73;8.73;;;17.80;86.80;;;18.24;56.06;94927.53;5065159;28;20562;-59
2022/05/14 05:20:19;;;;;;;12.30;8.70;;;17.90;85.70;;;18.37;55.89;94936.69;5064508;28;20478;-58
2022/05/14 05:22:48;;;;;;;11.60;8.40;;;18.00;85.60;;;18.50;55.86;94931.53;5064633;28;20497;-58
2022/05/14 05:25:15;;;;;;;19.37;9.83;;;18.10;85.60;;;18.64;55.97;94929.84;5065491;28;20475;-58
2022/05/14 05:27:44;;;;;;;20.93;10.10;;;18.20;84.90;;;18.79;55.05;94935.09;5064479;28;20451;-56
2022/05/14 05:30:12;;;;;;;17.90;8.43;;;18.40;84.50;;;18.96;55.36;94938.38;5062314;28;20475;-57
2022/05/14 05:32:40;;;;;;;13.30;7.70;;;18.50;84.60;;;19.15;54.83;94936.94;5062918;28;21177;-57
2022/05/14 05:35:08;;;;;;;14.40;8.50;;;18.70;84.80;;;19.38;54.77;94938.56;5064387;28;21026;-59
2022/05/14 05:37:37;;;;;;;10.50;8.33;;;18.90;84.50;;;19.61;54.30;94931.16;5063345;28;20470;-56
2022/05/14 05:40:06;;;;;;;15.50;8.23;;;19.10;83.80;;;19.83;53.85;94939.97;5064838;28;20451;-57
2022/05/14 05:42:33;;;;;;;17.23;7.83;;;19.30;82.80;;;20.04;53.72;94933.69;5064784;28;20827;-60
2022/05/14 05:45:02;;;;;;;14.50;8.67;;;19.50;82.30;;;20.26;53.53;94935.47;5066273;28;20453;-56
2022/05/14 05:47:29;;;;;;;25.13;9.17;;;19.70;81.30;;;20.44;53.49;94933.09;5063037;28;20471;-57
2022/05/14 05:49:56;;;;;;;16.20;9.47;;;19.90;81.00;;;20.67;53.14;94948.81;5065298;28;20558;-59
2022/05/14 05:52:24;;;;;;;13.33;8.80;;;20.10;80.80;;;20.87;52.53;94937.38;5063878;28;20546;-57
2022/05/14 05:57:38;;;;;;;17.00;9.50;;;20.50;79.90;;;21.25;52.32;94936.78;5062573;28;20451;-58
2022/05/14 06:00:09;;;;;;;22.83;9.90;;;20.70;79.90;;;21.41;51.84;94944.44;5063331;28;20504;-60
2022/05/14 06:02:36;;;;;;;23.77;9.87;;;20.90;79.60;;;21.60;51.59;94948.16;5058905;28;20838;-60
2022/05/14 06:05:05;;;;;;;18.80;10.27;;;21.00;78.30;;;21.75;51.45;94933.72;5064109;28;20676;-60
2022/05/14 06:07:32;;;;;;;15.60;10.63;;;21.20;78.00;;;21.96;51.43;94940.72;5064453;28;20457;-59
2022/05/14 06:10:00;;;;;;;18.03;9.63;;;21.40;78.00;;;22.16;51.08;94941.47;5063360;28;20529;-60
2022/05/14 06:12:27;;;;;;;19.77;9.93;;;21.60;78.00;;;22.43;51.30;94945.97;5063239;28;20447;-60
2022/05/14 06:14:55;;;;;;;12.70;10.37;;;21.80;77.60;;;22.64;50.50;94942.19;5058729;28;20948;-60
2022/05/14 06:17:24;;;;;;;12.90;9.10;;;22.00;77.10;;;22.82;50.14;94941.47;5063462;28;20455;-60
2022/05/14 06:19:51;;;;;;;15.70;8.37;;;22.20;76.10;;;23.03;49.88;94946.50;5063177;28;20464;-56
2022/05/14 06:22:18;;;;;;;10.10;8.03;;;22.40;75.80;;;23.25;50.17;94944.34;5064214;28;20902;-60
2022/05/14 06:24:45;;;;;;;14.63;7.67;;;22.70;75.30;;;23.50;49.31;94954.28;5063387;28;20447;-60
2022/05/14 06:27:13;;;;;;;11.37;8.63;;;22.90;74.70;;;23.71;49.54;94945.00;5062880;28;20938;-60
2022/05/14 06:29:40;;;;;;;13.57;8.03;;;23.10;73.90;;;23.87;49.26;94953.56;5059266;28;20459;-59
2022/05/14 06:32:08;;;;;;;9.80;8.43;;;23.30;74.00;;;23.96;49.27;94949.56;5060659;28;20951;-56
2022/05/14 06:34:37;;;;;;;21.37;9.47;;;23.40;73.30;;;24.04;48.98;94941.22;5062184;28;20489;-56
2022/05/14 06:37:05;;;;;;;12.83;8.40;;;23.50;72.40;;;24.13;48.23;94941.75;5060094;28;20471;-61
2022/05/14 06:39:32;;;;;;;14.70;8.30;;;23.60;71.80;;;24.26;48.38;94944.31;5062599;28;20458;-55
2022/05/14 06:42:02;;;;;;;10.70;7.63;;;23.70;71.90;;;24.34;47.87;94940.50;5064532;28;20497;-61
2022/05/14 06:44:29;;;;;;;9.50;8.07;;;23.70;71.10;;;24.48;48.06;94941.16;5063107;28;20459;-60
2022/05/14 06:46:57;;;;;;;24.13;7.73;;;23.90;71.50;;;24.65;47.93;94936.84;5064078;28;20486;-56
2022/05/14 06:49:24;;;;;;;13.17;8.37;;;24.00;70.90;;;24.84;47.93;94950.28;5065136;28;20469;-56
2022/05/14 06:51:53;;;;;;;12.50;8.40;;;24.20;70.40;;;25.01;47.11;94956.66;5065625;28;20543;-61
2022/05/14 06:54:21;;;;;;;11.80;9.80;;;24.40;70.00;;;25.15;47.44;94948.41;5065753;28;20477;-62
2022/05/14 06:56:48;;;;;;;11.43;7.70;;;24.50;69.20;;;25.27;46.54;94954.66;5062545;28;20565;-56
2022/05/14 06:59:16;;;;;;;12.03;8.73;;;24.70;69.60;;;25.37;46.69;94949.53;5060854;28;21105;-56
2022/05/14 07:01:45;;;;;;;11.70;7.43;;;24.80;68.20;;;25.53;46.31;94958.00;5062531;28;20928;-57
2022/05/14 07:06:59;;;;;;;10.70;8.57;;;25.10;67.40;;;26.04;45.81;94961.97;5064687;28;21039;-56
2022/05/14 07:09:29;;;;;;;20.17;8.07;;;25.40;66.50;;;26.32;45.46;94957.72;5062860;28;20509;-56
2022/05/14 07:11:59;;;;;;;10.83;6.73;;;25.60;65.60;;;26.62;45.02;94956.75;5067164;28;20474;-55
2022/05/14 07:14:27;;;;;;;13.80;8.43;;;25.90;64.40;;;26.91;44.68;94951.38;5067632;28;20454;-61
2022/05/14 07:16:55;;;;;;;16.90;8.20;;;26.20;63.90;;;27.19;44.30;94947.88;5065997;28;20490;-55
2022/05/14 07:19:23;;;;;;;7.40;6.70;;;26.50;62.90;;;27.36;43.69;94954.16;5064751;28;20458;-60
2022/05/14 07:21:51;;;;;;;9.10;7.90;;;26.70;61.50;;;27.46;43.51;94956.22;5067626;28;20501;-63
2022/05/14 07:24:21;;;;;;;13.73;7.50;;;26.80;60.70;;;27.51;43.01;94958.19;5066832;28;20461;-58
2022/05/14 07:26:51;;;;;;;12.20;8.93;;;26.90;59.80;;;27.53;43.24;94967.69;5065750;28;20566;-60
2022/05/14 07:29:19;;;;;;;10.13;7.20;;;26.90;59.50;;;27.63;43.07;94956.22;5062919;28;20889;-56
2022/05/14 07:31:47;;;;;;;8.13;7.30;;;27.00;59.90;;;27.80;42.64;94963.53;5065344;28;20513;-55
2022/05/14 07:34:14;;;;;;;14.57;8.17;;;27.10;59.00;;;28.02;42.83;94963.63;5066231;28;20535;-59
2022/05/14 07:36:45;;;;;;;16.90;7.80;;;27.30;58.70;;;28.28;42.61;94954.00;5065896;28;20474;-59
2022/05/14 07:39:12;;;;;;;10.70;8.30;;;27.60;58.50;;;28.52;42.09;94959.19;5067303;28;20443;-58
2022/05/14 07:41:43;;;;;;;21.50;7.33;;;27.80;57.50;;;28.73;41.26;94960.31;5066087;28;20521;-57
2022/05/14 07:44:11;;;;;;;13.97;7.27;;;28.00;57.00;;;28.95;41.38;94963.84;5064269;28;20529;-60
2022/05/14 07:46:39;;;;;;;9.53;8.13;;;28.30;56.70;;;29.16;40.84;94964.06;5062204;28;20484;-58
2022/05/14 07:49:10;;;;;;;11.47;7.67;;;28.50;55.60;;;29.40;40.15;94969.19;5065065;28;20461;-57
2022/05/14 07:51:38;;;;;;;16.57;7.70;;;28.70;55.50;;;29.63;40.64;94968.88;5066788;28;20847;-60
2022/05/14 07:54:05;;;;;;;9.37;8.20;;;28.90;54.90;;;29.90;39.77;94967.22;5064823;28;20831;-59
2022/05/14 07:56:33;;;;;;;8.93;8.13;;;29.20;54.80;;;30.14;39.78;94967.69;5060580;28;20484;-59
2022/05/14 07:59:03;;;;;;;13.33;8.00;;;29.40;54.00;;;30.37;39.25;94978.13;5065586;28;20482;-61
2022/05/14 08:01:31;;;;;;;12.10;7.50;;;29.70;53.40;;;30.61;38.93;94972.31;5067835;28;20524;-57
2022/05/14 08:03:58;;;;;;;15.00;7.63;;;29.90;53.00;;;30.82;38.46;94970.53;5068421;28;20917;-57
2022/05/14 08:06:26;;;;;;;14.20;7.67;;;30.10;51.60;;;31.03;37.97;94971.47;5067974;28;20548;-61
2022/05/14 08:08:54;;;;;;;10.80;7.83;;;30.40;51.10;;;31.20;37.14;94965.81;5063816;28;20458;-56
2022/05/14 08:11:21;;;;;;;14.67;8.73;;;30.50;50.60;;;31.35;37.80;94970.44;5065350;28;20281;-59
2022/05/14 08:13:49;;;;;;;13.50;7.50;;;30.70;50.30;;;31.54;37.20;94970.81;5069237;28;20212;-60
2022/05/14 08:16:17;;;;;;;15.93;9.07;;;30.90;49.50;;;31.72;36.45;94969.44;5064366;28;20751;-60
2022/05/14 08:18:45;;;;;;;19.77;8.00;;;31.00;49.60;;;31.85;36.76;94965.38;5066453;28;20250;-56
2022/05/14 08:26:43;;;;;;;9.20;8.20;;;31.40;48.60;;;32.09;36.08;94962.09;5065418;28;20214;-55
2022/05/14 08:29:11;;;;;;;14.70;8.17;;;31.40;48.10;;;32.19;36.12;94958.59;5064597;28;20692;-59
2022/05/14 08:31:40;;;;;;;13.50;8.00;;;31.50;48.30;;;32.32;36.03;94947.94;5062997;28;20594;-60
2022/05/14 08:34:07;;;;;;;8.87;8.07;;;31.60;48.10;;;32.48;35.90;94956.88;5059978;28;20666;-56
2022/05/14 08:36:35;;;;;;;12.13;7.43;;;31.80;48.50;;;32.63;36.02;94956.03;5063199;28;20231;-56
2022/05/14 08:39:02;;;;;;;12.73;8.00;;;32.00;47.80;;;32.80;35.71;94955.75;5064609;28;20493;-57
2022/05/14 08:41:30;;;;;;;10.37;7.63;;;32.10;47.40;;;32.97;35.28;94960.00;5065117;28;20231;-58
2022/05/14 08:44:00;;;;;;;24.73;7.72;;;32.30;47.10;;;33.14;35.02;94959.66;5064839;28;20227;-59
2022/05/14 08:46:28;;;;;;;9.83;6.63;;;32.40;46.60;;;33.24;34.56;94959.66;5064335;28;20224;-58
2022/05/14 08:49:03;;;;;;;6.57;5.95;;;32.60;46.30;;;33.34;35.14;94953.31;5064992;28;20196;-59
2022/05/14 08:51:32;;;;;;;10.20;7.07;;;32.60;46.00;;;33.47;34.54;94954.59;5063836;28;20736;-61
2022/05/14 08:54:00;;;;;;;11.13;6.30;;;32.80;45.70;;;33.58;33.60;94956.16;5064083;28;20201;-57
2022/05/14 08:56:33;;;;;;;8.98;6.65;;;32.90;44.70;;;33.62;33.96;94954.50;5061944;28;20227;-55
2022/05/14 08:59:30;;;;;;;11.77;6.70;;;32.90;44.70;;;33.73;32.85;94952.53;5064259;28;20192;-55
2022/05/14 09:02:01;;;;;;;36.20;13.10;;;33.10;44.30;;;33.78;33.75;94949.78;5065743;28;20216;-59
2022/05/14 09:04:30;;;;;;;35.05;11.85;;;33.10;44.40;;;33.93;33.39;94955.09;5061600;28;20199;-60
2022/05/14 09:06:57;;;;;;;31.95;6.68;;;33.20;44.10;;;34.09;33.29;94963.16;5061955;28;20231;-59
2022/05/14 09:09:24;;;;;;;13.25;7.25;;;33.40;44.20;;;34.25;33.09;94964.66;5066153;28;20255;-55
2022/05/14 09:11:57;;;;;;;16.45;6.85;;;33.50;43.80;;;34.48;32.94;94967.72;5064315;28;20224;-55
2022/05/14 09:14:28;;;;;;;28.25;8.75;;;33.70;42.90;;;34.62;31.82;94965.13;5062132;28;20196;-56
2022/05/14 09:17:08;;;;;;;17.67;8.88;;;33.90;43.20;;;34.81;31.81;94962.47;5066443;28;20323;-56
2022/05/14 09:19:42;;;;;;;10.40;6.03;;;34.10;42.90;;;34.99;32.11;94975.38;5066292;28;20204;-60
2022/05/14 09:22:18;;;;;;;11.93;7.72;;;34.20;42.70;;;34.90;32.19;94971.66;5065983;28;20238;-59
2022/05/14 09:24:49;;;;;;;6.85;6.15;;;34.20;42.60;;;34.53;31.65;94964.94;5066121;28;20647;-55
2022/05/14 09:27:26;;;;;;;14.13;6.22;;;34.00;41.50;;;33.93;31.77;94966.03;5065973;28;20197;-59
2022/05/14 09:29:55;;;;;;;9.10;6.32;;;33.60;41.70;;;33.40;32.85;94968.53;5063815;28;20558;-56
2022/05/14 09:32:32;;;;;;;11.30;6.80;;;33.10;42.70;;;32.90;33.33;94963.03;5062626;28;20569;-55
2022/05/14 09:35:11;;;;;;;7.32;6.35;;;32.60;42.90;;;32.35;33.65;94968.38;5064986;28;20208;-56
2022/05/14 09:37:39;;;;;;;15.57;6.90;;;32.00;43.30;;;31.85;34.21;94978.97;5067483;28;20231;-55
2022/05/14 09:40:13;;;;;;;10.68;6.82;;;31.50;44.30;;;31.35;35.21;94970.44;5065397;28;20284;-59
2022/05/14 09:42:44;;;;;;;12.13;5.68;;;31.00;45.40;;;30.87;36.14;94967.03;5065507;28;20216;-60
2022/05/14 09:45:31;;;;;;;10.10;6.30;;;30.50;46.30;;;30.36;36.67;94964.84;5070354;28;20272;-59
2022/05/14 09:48:15;;;;;;;10.40;6.63;;;30.00;47.30;;;29.88;37.31;94961.25;5063889;28;20193;-56
2022/05/14 09:50:46;;;;;;;7.43;6.20;;;29.50;48.00;;;29.48;38.39;94957.88;5064775;28;20306;-55
2022/05/14 09:53:14;;;;;;;8.53;7.73;;;29.10;48.70;;;29.13;38.48;94949.13;5061546;28;20555;-56
2022/05/14 09:56:41;;;;;;;14.43;7.57;;;28.70;50.00;;;28.75;40.43;94948.16;5063294;28;20234;-58
2022/05/14 09:59:35;;;;;;;14.23;7.47;;;28.30;51.60;;;28.44;41.09;94949.63;5035727;28;20711;-62
2022/05/14 10:02:11;;;;;;;12.10;7.67;;;28.00;52.30;;;28.23;41.13;94949.34;5060771;28;20231;-56
2022/05/14 10:04:54;;;;;;;13.47;7.43;;;27.80;52.30;;;28.07;41.08;94952.88;5057945;28;20464;-54
2022/05/14 10:07:28;;;;;;;16.03;6.90;;;27.60;52.80;;;28.03;41.31;94955.28;5063302;28;20454;-56
2022/05/14 10:10:17;;;;;;;6.20;5.60;;;27.50;53.20;;;28.09;41.28;94956.19;5062264;28;20696;-57
2022/05/14 10:12:46;;;;;;;12.70;5.93;;;27.50;53.40;;;28.21;40.78;94956.06;5066216;28;20461;-58
2022/05/14 10:15:24;;;;;;;10.10;6.00;;;27.60;53.00;;;28.42;40.57;94959.88;5069208;28;20799;-56
2022/05/14 10:17:55;;;;;;;12.67;5.70;;;27.80;52.90;;;28.72;40.30;94964.91;5068589;28;20454;-59
2022/05/14 10:20:38;;;;;;;11.17;6.53;;;28.10;52.90;;;29.02;40.64;94982.59;5067242;28;20498;-55
2022/05/14 10:26:48;;;;;;;6.50;5.47;;;28.50;51.30;;;29.17;39.44;94971.09;5044721;28;20822;-56
2022/05/14 10:29:36;;;;;;;24.33;6.00;;;28.60;51.00;;;29.17;38.68;94962.97;5068990;28;20480;-56
2022/05/14 10:32:06;;;;;;;16.13;6.37;;;28.50;51.00;;;29.04;39.87;94952.53;5066223;28;20473;-58
2022/05/14 10:34:41;;;;;;;7.07;6.43;;;28.50;51.40;;;28.87;39.85;94958.84;5066835;28;20454;-60
2022/05/14 10:37:16;;;;;;;16.30;6.20;;;28.40;52.00;;;28.76;40.29;94954.38;5066021;28;20473;-54
2022/05/14 10:39:50;;;;;;;10.50;6.47;;;28.30;52.60;;;28.64;40.32;94956.41;5068513;28;20934;-59
2022/05/14 10:42:21;;;;;;;13.53;5.77;;;28.10;52.80;;;28.56;40.45;94953.03;5065016;28;20882;-57
2022/05/14 10:44:51;;;;;;;17.77;5.27;;;28.10;52.90;;;28.65;40.56;94956.16;5066484;28;20826;-59